LA HONDA (LAH)

Elevation: 425' · SAN GREGORIO CR basin · Operator: CAL FIRE

Query executed Friday at 11:10:59   clock

Provisional data, subject to change.
Select a sensor type for a plot of data.

Earlier

Date   /   Time   RAIN     TEMP     REL HUM     FUEL MS     FUEL TP     WIND SP     WIND DR     PEAK WS     PEAK WD     SOLAR R     BAT VOL    
(PDT)INCHES   DEG F   %   %   DEG F   MPH   DEG   MPH   DEG   W/M^2   VOLTS  
07/24/2014 11:00 0.00 80 51 11 89 4 253 7 244 710.00 13.6
07/24/2014 12:00 0.00 82 46 9 101 4 253 9 217 829.00 13.5
07/24/2014 13:00 0.00 81 47 7 108 4 264 11 245 892.00 13.5
07/24/2014 14:00 0.00 84 44 6 111 4 259 9 272 904.00 13.4
07/24/2014 15:00 0.00 83 44 6 106 4 256 11 229 860.00 13.4
07/24/2014 16:00 0.00 82 46 6 96 4 254 11 246 757.00 13.4
07/24/2014 17:00 0.00 80 46 6 98 4 255 10 257 620.00 13.4
07/24/2014 18:00 0.00 77 48 6 85 4 243 7 232 444.00 13.8
07/24/2014 19:00 0.00 71 56 7 70 3 259 6 258 68.00 13.4
07/24/2014 20:00 0.00 67 63 7 63 0 127 5 242 30.00 13.2
07/24/2014 21:00 0.00 62 73 8 57 1 317 3 103 3.00 13.1
07/24/2014 22:00 0.00 59 83 10 53 1 181 3 88 0.00 12.9
07/24/2014 23:00 0.00 57 87 10 52 2 83 4 93 0.00 12.9
07/25/2014 00:00 0.00 56 82 12 51 2 57 5 78 0.00 12.8
07/25/2014 01:00 0.00 55 76 13 49 4 76 5 95 0.00 12.8
07/25/2014 02:00 0.00 55 70 15 48 0 19 6 85 0.00 12.8
07/25/2014 03:00 0.00 53 76 16 47 5 87 6 81 0.00 12.7
07/25/2014 04:00 0.00 52 61 17 46 0 33 7 82 0.00 12.7
07/25/2014 05:00 0.00 51 70 18 46 4 83 4 89 0.00 12.7
07/25/2014 06:00 0.00 52 66 18 46 6 83 6 79 0.00 12.7
07/25/2014 07:00 0.00 55 50 18 49 5 89 6 78 19.00 12.7
07/25/2014 08:00 0.00 70 38 17 63 0 217 5 88 203.00 13.3
07/25/2014 09:00 0.00 76 31 13 75 3 245 5 236 378.00 13.7
07/25/2014 10:00 0.00 83 29 11 86 3 250 7 223 552.00 13.6
07/25/2014 11:00 0.00 89 28 9 97 4 256 6 252 706.00 13.4

Later | Latest

Warning! This data is preliminary and subject to revision.

Download Data Now Download Data Now | Show LAH Map | 24 Hours LAH Data | Plot all LAH Sensors | Daily LAH Data | LAH Info